Green Garnet — 3FEH6 — position and weather

sailwx.info

Track history (hours):
 
Tides and Currents Weather Stations Pressure Air Temp Water Temp Dewpoint Dewpoint Depression Visibility Wind Speed Wind Dir Waves Ship Positions

Green Garnet

Last reported at 2016-Dec-08 12:24 UTC. Time now 2016-Dec-10 04:57 UTC.
Position S 24°23' E 153°57'.

Length 209 m; draft 10.5 m.

Type: Cargo ship. MMSI: 356345000.

Date/timePositionNaut miles runAvg speedWind from/ knotsBaromVisibWave heightAir tempDewpointWater temp
2016-Dec-08 12:24S 24°23' E 153°57'10311.2
2016-Dec-08 03:15S 26°05' E 153°52'810.6
2016-Dec-08 02:32S 26°13' E 153°51'1010.3
2016-Dec-08 01:33S 26°23' E 153°51'1110.3
2016-Dec-08 00:31S 26°34' E 153°50'1111.1
2016-Dec-07 23:33S 26°44' E 153°50'1211.7
2016-Dec-07 22:33S 26°56' E 153°49'1211.9
2016-Dec-07 21:33S 27°08' E 153°49'1612.1
2016-Dec-07 20:14S 27°24' E 153°49'912.3
2016-Dec-07 19:33S 27°32' E 153°49'1212.3
2016-Dec-07 18:33S 27°45' E 153°49'1312.5
2016-Dec-07 17:33S 27°57' E 153°49'27912.1
2016-Dec-06 18:31S 32°29' E 152°36'1313.8
2016-Dec-06 17:33S 32°41' E 152°30'1413.5
2016-Dec-06 16:33S 32°54' E 152°23'1212.5
2016-Dec-06 15:33S 33°05' E 152°18'1211.6
2016-Dec-06 14:33S 33°16' E 152°13'2310.7
2016-Dec-06 12:21S 33°38' E 152°02'  
2016-Dec-01 00:31S 38°21' E 141°37'0 0.0
2016-Nov-30 23:22S 38°21' E 141°37'0 0.0
2016-Nov-30 22:31S 38°21' E 141°37'0 0.3
2016-Nov-30 21:26S 38°21' E 141°37'3 0.8
2016-Nov-30 17:21S 38°19' E 141°41'0 0.0
2016-Nov-30 16:33S 38°19' E 141°41'0 0.0
2016-Nov-30 15:30S 38°19' E 141°41'0 0.0
2016-Nov-30 14:30S 38°19' E 141°41'0 0.0
2016-Nov-30 13:27S 38°19' E 141°41'0 0.1
2016-Nov-30 12:33S 38°19' E 141°41'0 0.0
2016-Nov-30 11:30S 38°19' E 141°41'0 0.0
2016-Nov-30 10:33S 38°19' E 141°41'0 0.1
2016-Nov-30 09:33S 38°19' E 141°41'0 0.0
2016-Nov-30 08:28S 38°19' E 141°41'0 0.0
2016-Nov-30 07:33S 38°19' E 141°41'0 0.0
2016-Nov-30 06:33S 38°19' E 141°41'  
Track history (hours):
 
Tides and Currents Weather Stations Pressure Air Temp Water Temp Dewpoint Dewpoint Depression Visibility Wind Speed Wind Dir Waves Ship Positions

Green Garnet

Last reported at 2016-Dec-08 12:24 UTC. Time now 2016-Dec-10 04:57 UTC.
Position S 24°23' E 153°57'.

Length 209 m; draft 10.5 m.

Type: Cargo ship. MMSI: 356345000.

Date/timePositionNaut miles runAvg speedWind from/ knotsBaromVisibWave heightAir tempDewpointWater temp
2016-Dec-08 12:24S 24°23' E 153°57'10311.2
2016-Dec-08 03:15S 26°05' E 153°52'810.6
2016-Dec-08 02:32S 26°13' E 153°51'1010.3
2016-Dec-08 01:33S 26°23' E 153°51'1110.3
2016-Dec-08 00:31S 26°34' E 153°50'1111.1
2016-Dec-07 23:33S 26°44' E 153°50'1211.7
2016-Dec-07 22:33S 26°56' E 153°49'1211.9
2016-Dec-07 21:33S 27°08' E 153°49'1612.1
2016-Dec-07 20:14S 27°24' E 153°49'912.3
2016-Dec-07 19:33S 27°32' E 153°49'1212.3
2016-Dec-07 18:33S 27°45' E 153°49'1312.5
2016-Dec-07 17:33S 27°57' E 153°49'27912.1
2016-Dec-06 18:31S 32°29' E 152°36'1313.8
2016-Dec-06 17:33S 32°41' E 152°30'1413.5
2016-Dec-06 16:33S 32°54' E 152°23'1212.5
2016-Dec-06 15:33S 33°05' E 152°18'1211.6
2016-Dec-06 14:33S 33°16' E 152°13'2310.7
2016-Dec-06 12:21S 33°38' E 152°02'  
2016-Dec-01 00:31S 38°21' E 141°37'0 0.0
2016-Nov-30 23:22S 38°21' E 141°37'0 0.0
2016-Nov-30 22:31S 38°21' E 141°37'0 0.3
2016-Nov-30 21:26S 38°21' E 141°37'3 0.8
2016-Nov-30 17:21S 38°19' E 141°41'0 0.0
2016-Nov-30 16:33S 38°19' E 141°41'0 0.0
2016-Nov-30 15:30S 38°19' E 141°41'0 0.0
2016-Nov-30 14:30S 38°19' E 141°41'0 0.0
2016-Nov-30 13:27S 38°19' E 141°41'0 0.1
2016-Nov-30 12:33S 38°19' E 141°41'0 0.0
2016-Nov-30 11:30S 38°19' E 141°41'0 0.0
2016-Nov-30 10:33S 38°19' E 141°41'0 0.1
2016-Nov-30 09:33S 38°19' E 141°41'0 0.0
2016-Nov-30 08:28S 38°19' E 141°41'0 0.0
2016-Nov-30 07:33S 38°19' E 141°41'0 0.0
2016-Nov-30 06:33S 38°19' E 141°41'  

Dump ship's entire track history